Time;durP1;ratioP1;P1;durP2;ratioP2;P2;SDS_P1;SDS_P2;PMS_P1;PMS_P2;Temp;Humidity;BMP_temperature;BMP_pressure;BME280_temperature;BME280_humidity;BME280_pressure;Samples;Min_cycle;Max_cycle;Signal;HPM_P1;HPM_P2
2023/01/26 00:01:59;;;;;;;131.73;36.80;;;1.20;99.90;;;;;;5068864;28;20993;-90
2023/01/26 00:04:25;;;;;;;170.17;40.07;;;1.20;99.90;;;;;;5069212;28;20400;-90
2023/01/26 00:06:50;;;;;;;126.10;37.40;;;1.20;99.90;;;;;;5068138;28;20427;-90
2023/01/26 00:09:16;;;;;;;133.77;37.35;;;1.20;99.90;;;;;;5068811;28;20411;-92
2023/01/26 00:11:42;;;;;;;144.50;40.60;;;1.20;99.90;;;;;;5068399;28;20441;-90
2023/01/26 00:14:07;;;;;;;143.40;39.13;;;1.20;99.90;;;;;;5068195;28;20423;-90
2023/01/26 00:16:33;;;;;;;122.07;37.45;;;1.20;99.90;;;;;;5068134;28;20971;-92
2023/01/26 00:19:00;;;;;;;160.47;40.87;;;1.20;99.90;;;;;;5068338;28;20396;-89
2023/01/26 00:21:26;;;;;;;153.45;40.00;;;1.20;99.90;;;;;;5068330;28;20417;-91
2023/01/26 00:23:52;;;;;;;124.00;36.40;;;1.20;99.90;;;;;;5068220;28;20418;-91
2023/01/26 00:26:23;;;;;;;165.05;40.92;;;1.30;99.90;;;;;;5068389;28;20420;-91
2023/01/26 00:28:50;;;;;;;142.93;38.47;;;1.20;99.90;;;;;;5067786;28;20411;-90
2023/01/26 00:31:24;;;;;;;126.67;36.57;;;1.20;99.90;;;;;;5068287;28;20468;-91
2023/01/26 00:33:51;;;;;;;135.35;38.00;;;1.20;99.90;;;;;;5067954;28;20461;-90
2023/01/26 00:36:17;;;;;;;134.48;38.30;;;1.20;99.90;;;;;;5067807;28;20455;-90
2023/01/26 00:38:42;;;;;;;135.40;38.40;;;1.20;99.90;;;;;;5067688;28;20403;-91
2023/01/26 00:42:05;;;;;;;123.80;36.58;;;1.30;99.90;;;;;;5067644;28;20416;-91
2023/01/26 00:43:55;;;;;;;139.63;37.53;;;1.20;99.90;;;;;;5068304;28;20468;-90
2023/01/26 00:46:20;;;;;;;144.93;38.78;;;1.20;99.90;;;;;;5067423;28;20459;-91
2023/01/26 00:48:46;;;;;;;133.53;37.47;;;1.20;99.90;;;;;;5068172;28;20419;-92
2023/01/26 00:51:11;;;;;;;158.07;38.70;;;1.20;99.90;;;;;;5067173;28;20411;-90
2023/01/26 00:53:37;;;;;;;139.40;37.45;;;1.20;99.90;;;;;;5067653;28;20495;-91
2023/01/26 00:56:03;;;;;;;148.73;38.23;;;1.20;99.90;;;;;;5050508;28;20774;-88
2023/01/26 00:58:28;;;;;;;132.23;37.73;;;1.20;99.90;;;;;;5050714;28;20490;-89
2023/01/26 01:00:54;;;;;;;163.35;39.78;;;1.20;99.90;;;;;;5067614;28;20412;-90
2023/01/26 01:03:19;;;;;;;120.65;36.38;;;1.20;99.90;;;;;;5067600;28;20777;-91
2023/01/26 01:05:45;;;;;;;118.10;36.00;;;1.20;99.90;;;;;;5050960;28;20446;-89
2023/01/26 01:08:11;;;;;;;133.57;38.03;;;1.20;99.90;;;;;;5066975;28;20524;-92
2023/01/26 01:10:36;;;;;;;151.93;39.00;;;1.20;99.90;;;;;;5067618;28;20404;-90
2023/01/26 01:13:02;;;;;;;155.40;39.57;;;1.20;99.90;;;;;;5066864;28;20795;-90
2023/01/26 01:15:27;;;;;;;153.30;39.40;;;1.20;99.90;;;;;;5067347;28;20591;-92
2023/01/26 01:17:53;;;;;;;153.57;39.55;;;1.30;99.90;;;;;;5067017;28;20408;-91
2023/01/26 01:20:19;;;;;;;173.60;40.53;;;1.30;99.90;;;;;;5066746;28;20913;-91
2023/01/26 01:22:44;;;;;;;215.98;44.00;;;1.30;99.90;;;;;;5067354;28;20410;-90
2023/01/26 01:25:10;;;;;;;171.57;40.67;;;1.30;99.90;;;;;;5066670;28;20428;-91
2023/01/26 01:27:36;;;;;;;225.07;42.28;;;1.30;99.90;;;;;;5067113;28;21242;-92
2023/01/26 01:30:06;;;;;;;165.63;40.13;;;1.30;99.90;;;;;;5049843;28;20418;-91
2023/01/26 01:32:34;;;;;;;148.27;39.42;;;1.30;99.90;;;;;;5067609;28;20453;-91
2023/01/26 01:34:59;;;;;;;156.32;39.20;;;1.30;99.90;;;;;;5066566;28;20410;-90
2023/01/26 01:37:27;;;;;;;157.65;39.70;;;1.40;99.90;;;;;;5066888;28;20898;-91
2023/01/26 01:39:52;;;;;;;189.38;40.55;;;1.40;99.90;;;;;;5066866;28;20437;-91
2023/01/26 01:42:19;;;;;;;182.10;41.20;;;1.40;99.90;;;;;;5049864;28;20415;-91
2023/01/26 01:45:07;;;;;;;197.75;40.83;;;1.40;99.90;;;;;;5067105;28;20412;-92
2023/01/26 01:47:33;;;;;;;197.02;41.22;;;1.40;99.90;;;;;;5066356;28;20478;-91
2023/01/26 01:49:58;;;;;;;179.10;41.10;;;1.40;99.90;;;;;;5066560;28;20412;-93
2023/01/26 01:52:28;;;;;;;191.65;42.20;;;1.50;99.90;;;;;;5066590;28;20458;-92
2023/01/26 01:55:15;;;;;;;157.70;39.90;;;1.50;99.90;;;;;;5066877;28;20427;-90
2023/01/26 01:57:50;;;;;;;133.83;37.43;;;1.50;99.90;;;;;;5066884;28;20408;-92
2023/01/26 02:00:22;;;;;;;228.88;43.42;;;1.50;99.90;;;;;;5066505;28;20404;-91
2023/01/26 02:05:47;;;;;;;183.10;40.00;;;1.50;99.90;;;;;;5066565;28;20427;-91
2023/01/26 02:08:15;;;;;;;176.47;39.73;;;1.60;99.90;;;;;;5067176;28;20419;-90
2023/01/26 02:10:43;;;;;;;144.70;38.27;;;1.60;99.90;;;;;;5066843;28;20416;-90
2023/01/26 02:13:10;;;;;;;145.30;37.58;;;1.60;99.90;;;;;;5066482;28;20457;-91
2023/01/26 02:15:37;;;;;;;148.95;37.95;;;1.60;99.90;;;;;;5066650;28;20400;-91
2023/01/26 02:18:04;;;;;;;176.18;40.22;;;1.60;99.90;;;;;;5066358;28;20483;-91
2023/01/26 02:20:46;;;;;;;150.32;37.92;;;1.50;99.90;;;;;;5066609;28;20407;-91
2023/01/26 02:23:25;;;;;;;204.18;40.70;;;1.60;99.90;;;;;;5066460;28;20419;-91
2023/01/26 02:25:53;;;;;;;153.93;37.50;;;1.70;99.90;;;;;;5065894;28;20439;-92
2023/01/26 02:28:28;;;;;;;173.88;38.65;;;1.70;99.90;;;;;;5066685;28;20419;-91
2023/01/26 02:30:55;;;;;;;144.32;36.75;;;1.70;99.90;;;;;;5066263;28;20408;-93
2023/01/26 02:33:24;;;;;;;144.95;37.78;;;1.70;99.90;;;;;;5066515;28;20399;-94
2023/01/26 02:35:50;;;;;;;167.98;37.70;;;1.90;99.90;;;;;;5066317;28;20907;-91
2023/01/26 02:38:17;;;;;;;159.27;38.28;;;1.70;99.90;;;;;;5065724;28;20400;-92
2023/01/26 02:40:54;;;;;;;134.38;35.45;;;1.80;99.90;;;;;;5066661;28;20407;-91
2023/01/26 02:43:22;;;;;;;129.32;37.28;;;1.80;99.90;;;;;;5065761;28;20468;-90
2023/01/26 02:45:48;;;;;;;123.53;35.55;;;1.80;99.90;;;;;;5066297;28;20842;-91
2023/01/26 02:49:45;;;;;;;134.27;36.53;;;1.80;99.90;;;;;;5065978;28;20419;-91
2023/01/26 02:50:59;;;;;;;167.63;38.35;;;1.80;99.90;;;;;;5065995;28;20411;-90
2023/01/26 02:53:25;;;;;;;191.17;39.23;;;1.80;99.90;;;;;;5066488;28;20487;-91
2023/01/26 02:55:51;;;;;;;160.80;37.90;;;1.80;99.90;;;;;;5050817;28;20412;-90
2023/01/26 02:58:16;;;;;;;154.25;37.30;;;1.80;99.90;;;;;;5070224;28;20921;-92
2023/01/26 03:00:42;;;;;;;170.90;37.63;;;1.80;99.90;;;;;;5069731;28;20484;-92
2023/01/26 03:03:14;;;;;;;189.30;39.83;;;2.00;99.90;;;;;;5070273;28;20438;-92
2023/01/26 03:05:40;;;;;;;140.57;37.55;;;1.90;99.90;;;;;;5068827;28;20428;-90
2023/01/26 03:08:06;;;;;;;156.10;38.25;;;1.90;99.90;;;;;;5069961;28;20446;-92
2023/01/26 03:10:32;;;;;;;152.03;37.73;;;1.90;99.90;;;;;;5069748;28;20404;-91
2023/01/26 03:12:58;;;;;;;182.03;39.93;;;1.90;99.90;;;;;;5069130;28;20956;-92
2023/01/26 03:15:41;;;;;;;181.98;39.35;;;2.00;99.90;;;;;;5069804;28;20411;-91
2023/01/26 03:29:20;;;;;;;153.30;37.03;;;2.00;99.90;;;;;;5069825;28;20400;-91
2023/01/26 03:31:46;;;;;;;126.82;35.08;;;2.00;99.90;;;;;;5068907;28;20415;-91
2023/01/26 03:34:11;;;;;;;260.70;42.40;;;2.00;99.90;;;;;;5069251;28;20424;-93
2023/01/26 03:36:37;;;;;;;167.77;38.28;;;2.10;99.90;;;;;;5068971;28;20440;-93
2023/01/26 03:39:03;;;;;;;180.80;38.63;;;2.00;99.90;;;;;;5069067;28;20490;-92
2023/01/26 03:57:54;;;;;;;208.40;41.38;;;2.20;99.90;;;;;;5068829;28;20903;-91
2023/01/26 04:00:20;;;;;;;215.43;42.07;;;2.30;99.90;;;;;;5069308;28;20407;-91
2023/01/26 04:08:25;;;;;;;158.55;37.47;;;2.30;99.90;;;;;;5067835;28;20487;-90
2023/01/26 04:10:53;;;;;;;185.25;39.67;;;2.50;99.90;;;;;;5068638;28;20418;-91
2023/01/26 04:21:35;;;;;;;164.93;37.47;;;2.40;99.90;;;;;;5068754;28;20488;-92
2023/01/26 04:24:08;;;;;;;218.25;40.05;;;2.40;99.90;;;;;;5068020;28;20424;-90
2023/01/26 04:26:35;;;;;;;205.93;39.20;;;2.60;99.90;;;;;;5067988;28;20434;-91
2023/01/26 04:29:07;;;;;;;288.00;43.42;;;2.50;99.90;;;;;;5068712;28;20827;-93
2023/01/26 04:31:32;;;;;;;195.90;38.70;;;2.50;99.90;;;;;;5067703;28;20412;-92
2023/01/26 04:34:03;;;;;;;198.03;40.60;;;2.50;99.90;;;;;;5068193;28;20461;-91
2023/01/26 04:36:29;;;;;;;327.77;61.17;;;2.60;99.90;;;;;;5063877;28;20408;-92
2023/01/26 04:38:55;;;;;;;191.48;43.60;;;2.60;99.90;;;;;;5068366;28;20809;-91
2023/01/26 04:41:21;;;;;;;178.63;41.47;;;2.70;99.90;;;;;;5067581;28;20415;-92
2023/01/26 04:43:47;;;;;;;198.27;40.97;;;2.70;99.90;;;;;;5067728;28;20404;-91
2023/01/26 04:46:13;;;;;;;202.67;41.83;;;2.70;99.90;;;;;;5067796;28;20555;-93
2023/01/26 04:48:38;;;;;;;201.13;39.60;;;2.70;99.90;;;;;;5067778;28;20597;-92
2023/01/26 04:51:12;;;;;;;233.73;41.30;;;2.80;99.90;;;;;;5067627;28;20411;-90
2023/01/26 04:53:38;;;;;;;216.68;39.60;;;2.90;99.90;;;;;;5067336;28;20435;-92
2023/01/26 04:56:04;;;;;;;173.68;36.67;;;2.90;99.90;;;;;;5068341;28;20404;-92
2023/01/26 04:58:31;;;;;;;207.30;38.85;;;2.90;99.90;;;;;;5067459;28;20395;-90
2023/01/26 05:00:57;;;;;;;210.45;38.90;;;3.00;99.90;;;;;;5067206;28;20411;-92
2023/01/26 05:03:24;;;;;;;201.93;38.05;;;3.00;99.90;;;;;;5051364;28;20410;-92
2023/01/26 05:05:52;;;;;;;206.87;37.07;;;3.00;99.90;;;;;;5067099;28;20482;-90
2023/01/26 05:08:18;;;;;;;185.73;35.42;;;3.00;99.90;;;;;;5067894;28;20419;-90
2023/01/26 05:10:45;;;;;;;187.52;36.90;;;3.00;99.90;;;;;;5067095;28;20767;-92
2023/01/26 05:13:11;;;;;;;177.68;33.22;;;3.00;99.90;;;;;;5067385;28;20416;-90
2023/01/26 05:15:36;;;;;;;212.13;35.60;;;3.40;99.90;;;;;;5067207;28;20502;-90
2023/01/26 05:18:03;;;;;;;157.38;31.10;;;3.10;99.90;;;;;;5067210;28;20482;-91
2023/01/26 05:20:29;;;;;;;156.00;26.70;;;3.10;99.90;;;;;;5067182;28;20396;-91
2023/01/26 05:22:55;;;;;;;175.80;27.67;;;3.10;99.90;;;;;;5066919;28;20415;-92
2023/01/26 05:25:20;;;;;;;134.20;23.35;;;3.10;99.90;;;;;;5050619;28;20407;-90
2023/01/26 05:27:46;;;;;;;131.90;22.73;;;3.20;99.90;;;;;;5066759;28;20913;-91
2023/01/26 05:30:12;;;;;;;96.53;15.75;;;3.30;99.90;;;;;;5067524;28;20392;-91
2023/01/26 05:32:38;;;;;;;67.25;10.73;;;3.30;99.90;;;;;;5066562;28;20396;-91
2023/01/26 05:35:05;;;;;;;69.40;8.45;;;3.50;99.90;;;;;;5066851;28;20403;-90
2023/01/26 05:37:31;;;;;;;60.90;6.93;;;3.60;99.90;;;;;;5066498;28;20483;-91
2023/01/26 05:39:57;;;;;;;55.67;6.25;;;3.60;99.90;;;;;;5066311;28;20799;-90
2023/01/26 05:42:24;;;;;;;60.07;6.10;;;3.80;99.90;;;;;;5067173;28;20404;-88
2023/01/26 05:44:49;;;;;;;53.50;6.32;;;3.90;99.90;;;;;;5066713;28;20462;-90
2023/01/26 05:47:16;;;;;;;60.05;6.38;;;3.90;99.90;;;;;;5050400;28;20542;-90
2023/01/26 05:49:42;;;;;;;60.63;6.20;;;3.90;99.90;;;;;;5066508;28;20404;-90
2023/01/26 05:52:14;;;;;;;51.57;6.33;;;4.00;99.90;;;;;;5066802;28;20418;-88
2023/01/26 05:54:40;;;;;;;58.25;6.15;;;4.10;99.90;;;;;;5066112;28;20541;-91
2023/01/26 05:57:07;;;;;;;55.60;6.05;;;4.00;99.90;;;;;;5067019;28;20814;-90
2023/01/26 05:59:32;;;;;;;57.40;5.93;;;4.00;99.90;;;;;;5050023;28;20400;-91
2023/01/26 06:01:58;;;;;;;54.28;7.15;;;4.00;99.90;;;;;;5049794;28;20476;-90
2023/01/26 06:04:24;;;;;;;53.08;5.25;;;3.90;99.90;;;;;;5049532;28;20426;-90
2023/01/26 06:06:55;;;;;;;59.38;6.05;;;3.90;99.90;;;;;;5066375;28;20436;-91
2023/01/26 06:09:21;;;;;;;54.80;6.43;;;3.90;99.90;;;;;;5050135;28;20972;-90
2023/01/26 06:11:47;;;;;;;57.35;5.75;;;3.90;99.90;;;;;;5066149;28;20647;-91
2023/01/26 06:14:12;;;;;;;55.77;6.57;;;3.90;99.90;;;;;;5066786;28;20411;-89
2023/01/26 06:16:38;;;;;;;64.27;7.00;;;4.00;99.90;;;;;;5049569;28;20829;-90
2023/01/26 06:19:04;;;;;;;56.53;5.80;;;3.90;99.90;;;;;;5066177;28;20410;-90
2023/01/26 06:21:31;;;;;;;58.97;6.00;;;3.90;99.90;;;;;;5052914;28;20410;-91
2023/01/26 06:23:57;;;;;;;55.60;6.38;;;3.90;99.90;;;;;;5029548;28;20958;-91
2023/01/26 06:26:23;;;;;;;51.00;5.53;;;3.70;99.90;;;;;;5043412;28;20441;-89
2023/01/26 06:28:49;;;;;;;57.33;5.47;;;3.80;99.90;;;;;;5065062;28;20419;-89
2023/01/26 06:31:15;;;;;;;56.88;5.47;;;3.80;99.90;;;;;;5052436;28;21091;-90
2023/01/26 06:33:41;;;;;;;47.05;5.35;;;3.90;99.90;;;;;;5053398;28;20494;-91
2023/01/26 06:36:09;;;;;;;55.10;5.28;;;3.90;99.90;;;;;;5053501;28;20442;-90
2023/01/26 06:38:35;;;;;;;45.72;5.05;;;3.80;99.90;;;;;;5053964;28;20405;-90
2023/01/26 06:41:02;;;;;;;50.03;4.82;;;3.70;99.90;;;;;;5053114;28;20411;-90
2023/01/26 06:43:34;;;;;;;57.40;6.10;;;3.80;99.90;;;;;;5053627;28;20412;-90
2023/01/26 06:46:01;;;;;;;51.50;5.35;;;3.80;99.90;;;;;;5069933;28;20474;-91
2023/01/26 06:48:29;;;;;;;50.85;4.63;;;3.80;99.90;;;;;;5053914;28;20411;-90
2023/01/26 06:51:16;;;;;;;47.83;4.90;;;3.70;99.90;;;;;;5053084;28;20411;-91
2023/01/26 06:53:47;;;;;;;47.13;4.47;;;3.70;99.90;;;;;;5052976;28;20408;-89
2023/01/26 06:56:12;;;;;;;52.10;5.23;;;3.70;99.90;;;;;;5053758;28;20399;-91
2023/01/26 06:58:38;;;;;;;45.50;4.80;;;3.80;99.90;;;;;;5069662;28;20410;-89
2023/01/26 07:01:04;;;;;;;48.67;4.20;;;3.80;99.90;;;;;;5052490;28;20426;-92
2023/01/26 07:03:30;;;;;;;52.00;4.70;;;3.80;99.90;;;;;;5053249;28;20399;-92
2023/01/26 07:05:56;;;;;;;52.38;5.70;;;3.80;99.90;;;;;;5053246;28;20467;-91
2023/01/26 07:08:22;;;;;;;55.47;5.75;;;3.80;99.90;;;;;;5052774;28;20490;-91
2023/01/26 07:10:51;;;;;;;53.40;4.53;;;3.80;99.90;;;;;;5051448;28;20471;-91
2023/01/26 07:13:16;;;;;;;48.83;4.28;;;3.80;99.90;;;;;;5052668;28;20925;-91
2023/01/26 07:15:42;;;;;;;54.60;5.60;;;3.80;99.90;;;;;;5052108;28;20785;-90
2023/01/26 07:18:08;;;;;;;44.33;5.20;;;3.80;99.90;;;;;;5053128;28;20905;-91
2023/01/26 07:20:33;;;;;;;53.30;5.05;;;3.80;99.90;;;;;;5051920;28;20767;-90
2023/01/26 07:22:59;;;;;;;43.28;4.93;;;3.70;99.90;;;;;;5070087;28;20411;-91
2023/01/26 07:25:25;;;;;;;47.17;4.65;;;3.70;99.90;;;;;;5052640;28;20759;-92
2023/01/26 07:27:58;;;;;;;41.55;4.22;;;3.70;99.90;;;;;;5052699;28;20416;-92
2023/01/26 07:30:24;;;;;;;43.30;4.40;;;3.80;99.90;;;;;;5052848;28;20419;-91
2023/01/26 07:32:50;;;;;;;47.25;4.70;;;3.90;99.90;;;;;;5069402;28;20464;-91
2023/01/26 07:35:16;;;;;;;47.47;4.55;;;3.90;99.90;;;;;;5069441;28;20438;-91
2023/01/26 07:37:41;;;;;;;47.70;4.72;;;3.80;99.90;;;;;;5069501;28;20777;-91
2023/01/26 07:40:08;;;;;;;54.13;4.43;;;3.90;99.90;;;;;;5053317;28;20407;-90
2023/01/26 07:42:33;;;;;;;48.72;4.70;;;3.90;99.90;;;;;;5051545;28;20923;-90
2023/01/26 07:44:59;;;;;;;47.93;5.27;;;3.90;99.90;;;;;;5052282;28;20407;-92
2023/01/26 07:47:25;;;;;;;47.47;4.97;;;3.90;99.90;;;;;;5052213;28;20475;-90
2023/01/26 07:49:50;;;;;;;49.30;4.70;;;4.20;99.90;;;;;;5069028;28;20466;-90
2023/01/26 07:52:16;;;;;;;49.45;4.80;;;4.00;99.90;;;;;;5068800;28;20422;-91
2023/01/26 07:54:42;;;;;;;44.05;4.47;;;4.00;99.90;;;;;;5068796;28;20790;-91
2023/01/26 07:57:07;;;;;;;39.20;4.25;;;4.00;99.90;;;;;;5052671;28;20415;-90
2023/01/26 07:59:33;;;;;;;50.30;4.30;;;4.00;99.90;;;;;;5051920;28;20423;-90
2023/01/26 08:01:59;;;;;;;45.55;4.82;;;3.90;99.90;;;;;;5052317;28;20470;-90
2023/01/26 08:04:24;;;;;;;46.08;4.57;;;4.10;99.90;;;;;;5068240;28;20449;-89
2023/01/26 08:06:51;;;;;;;42.40;4.68;;;3.80;99.90;;;;;;5051778;28;20481;-91
2023/01/26 08:09:17;;;;;;;35.17;3.60;;;3.90;99.90;;;;;;5068513;28;20408;-91
2023/01/26 08:11:43;;;;;;;42.60;4.30;;;3.90;99.90;;;;;;5051639;28;20406;-92
2023/01/26 08:14:08;;;;;;;44.07;4.70;;;4.00;99.90;;;;;;5052123;28;20396;-90
2023/01/26 08:16:34;;;;;;;42.72;3.80;;;3.80;99.90;;;;;;5051415;28;20411;-88
2023/01/26 08:19:00;;;;;;;40.08;3.58;;;3.90;99.90;;;;;;5068600;28;20416;-89
2023/01/26 08:21:25;;;;;;;48.90;5.55;;;3.90;99.90;;;;;;5051090;28;20457;-90
2023/01/26 08:23:51;;;;;;;40.40;3.67;;;3.90;99.90;;;;;;5051380;28;20412;-88
2023/01/26 08:26:18;;;;;;;48.63;4.60;;;3.90;99.90;;;;;;5067962;28;20420;-89
2023/01/26 08:28:47;;;;;;;43.50;4.63;;;4.00;99.90;;;;;;5069454;28;20404;-91
2023/01/26 08:31:19;;;;;;;45.22;4.63;;;4.00;99.90;;;;;;5067788;28;20404;-89
2023/01/26 08:33:46;;;;;;;40.33;4.38;;;4.10;99.90;;;;;;5067542;28;20469;-89
2023/01/26 08:36:14;;;;;;;39.42;4.47;;;4.20;99.90;;;;;;5068465;28;20407;-89
2023/01/26 08:38:41;;;;;;;41.50;4.55;;;4.30;99.90;;;;;;5050622;28;20408;-89
2023/01/26 08:41:07;;;;;;;40.63;3.75;;;4.50;99.90;;;;;;5068062;28;20895;-89
2023/01/26 08:43:33;;;;;;;43.20;4.55;;;4.60;99.90;;;;;;5050593;28;20457;-90
2023/01/26 08:45:58;;;;;;;46.83;4.18;;;4.60;99.90;;;;;;5067598;28;20432;-90
2023/01/26 08:48:24;;;;;;;40.50;4.05;;;4.70;99.90;;;;;;5067231;28;20752;-90
2023/01/26 08:50:54;;;;;;;38.60;4.13;;;4.80;99.90;;;;;;5067332;28;20437;-91
2023/01/26 08:53:20;;;;;;;44.50;4.05;;;4.80;99.90;;;;;;5050560;28;20396;-91
2023/01/26 08:55:46;;;;;;;41.85;4.63;;;5.10;99.90;;;;;;5067709;28;20399;-90
2023/01/26 08:58:11;;;;;;;38.87;4.00;;;5.00;99.90;;;;;;5067676;28;20926;-89
2023/01/26 09:00:37;;;;;;;36.42;4.18;;;5.10;99.90;;;;;;5050641;28;20490;-89
2023/01/26 09:03:04;;;;;;;36.43;3.83;;;5.10;99.90;;;;;;5050912;28;20418;-90
2023/01/26 09:05:32;;;;;;;32.85;3.88;;;5.10;99.90;;;;;;5067116;28;20471;-90
2023/01/26 09:07:57;;;;;;;39.85;4.38;;;5.20;99.90;;;;;;5050410;28;20478;-90
2023/01/26 09:10:23;;;;;;;31.83;3.77;;;5.40;99.90;;;;;;5067298;28;20450;-90
2023/01/26 09:12:49;;;;;;;37.15;3.67;;;5.20;99.90;;;;;;5049916;28;20837;-89
2023/01/26 09:15:14;;;;;;;36.33;3.88;;;5.30;99.90;;;;;;5067475;28;20424;-89
2023/01/26 09:17:41;;;;;;;37.40;4.17;;;5.40;99.90;;;;;;5049618;28;20858;-88
2023/01/26 09:20:10;;;;;;;30.67;3.83;;;5.60;99.90;;;;;;5066952;28;20494;-89
2023/01/26 09:22:36;;;;;;;31.88;3.63;;;5.70;99.90;;;;;;5048884;28;20424;-89
2023/01/26 09:25:02;;;;;;;29.20;4.00;;;5.90;99.90;;;;;;5046108;28;20566;-90
2023/01/26 09:27:27;;;;;;;29.40;3.10;;;6.10;99.90;;;;;;5046810;28;20516;-91
2023/01/26 09:29:54;;;;;;;31.83;2.97;;;6.20;99.90;;;;;;5046648;28;20421;-89
2023/01/26 09:32:21;;;;;;;33.10;3.60;;;6.30;99.90;;;;;;5047252;28;20535;-91
2023/01/26 09:34:47;;;;;;;27.55;4.30;;;6.60;99.90;;;;;;5062868;28;20487;-91
2023/01/26 09:37:13;;;;;;;27.92;3.38;;;6.70;99.90;;;;;;5049322;28;20498;-90
2023/01/26 09:39:38;;;;;;;30.88;3.30;;;6.80;99.80;;;;;;5049315;28;20404;-90
2023/01/26 09:42:30;;;;;;;33.10;3.53;;;6.80;99.70;;;;;;5066852;28;20438;-91
2023/01/26 09:45:04;;;;;;;31.92;3.15;;;7.00;99.40;;;;;;5050093;28;20422;-89
2023/01/26 09:47:40;;;;;;;34.23;5.03;;;7.00;99.60;;;;;;5066623;28;20798;-92
2023/01/26 09:50:20;;;;;;;29.60;3.65;;;7.00;99.50;;;;;;5067135;28;20439;-91
2023/01/26 09:53:04;;;;;;;28.20;3.38;;;7.10;99.40;;;;;;5048356;28;20541;-91
2023/01/26 09:55:30;;;;;;;30.58;3.67;;;7.10;99.20;;;;;;5066556;28;20925;-91
2023/01/26 09:58:03;;;;;;;26.20;2.78;;;7.10;98.90;;;;;;5047935;28;20438;-90
2023/01/26 10:00:43;;;;;;;32.50;4.45;;;7.20;99.30;;;;;;5064643;28;20521;-90
2023/01/26 10:03:37;;;;;;;30.15;3.42;;;7.20;98.90;;;;;;5048633;28;20424;-91
2023/01/26 10:06:27;;;;;;;26.17;2.90;;;7.30;99.00;;;;;;5048151;28;20779;-90
2023/01/26 10:09:07;;;;;;;26.60;3.00;;;7.30;99.00;;;;;;5050058;28;20415;-89
2023/01/26 10:11:37;;;;;;;26.13;2.90;;;7.40;98.70;;;;;;5066460;28;20408;-90
2023/01/26 10:14:19;;;;;;;28.30;3.50;;;7.40;98.90;;;;;;5047671;28;20449;-90
2023/01/26 10:16:48;;;;;;;27.30;3.25;;;7.50;98.80;;;;;;5049122;28;20408;-90
2023/01/26 10:19:20;;;;;;;22.90;2.75;;;7.50;98.90;;;;;;5049293;28;20404;-90
2023/01/26 10:21:49;;;;;;;21.42;2.80;;;7.60;98.70;;;;;;5048462;28;20431;-90
2023/01/26 10:24:18;;;;;;;28.03;3.07;;;7.60;98.20;;;;;;5066090;28;20953;-90
2023/01/26 10:26:44;;;;;;;22.20;2.80;;;7.60;98.30;;;;;;5065281;28;20858;-90
2023/01/26 10:29:14;;;;;;;23.80;2.50;;;7.60;97.80;;;;;;5049312;28;20407;-89
2023/01/26 10:31:40;;;;;;;21.20;2.50;;;7.50;97.80;;;;;;5048953;28;20406;-90
2023/01/26 10:34:16;;;;;;;19.17;2.20;;;7.60;98.20;;;;;;5048932;28;20491;-90
2023/01/26 10:36:45;;;;;;;23.25;2.58;;;8.00;98.50;;;;;;5065097;28;20423;-89
2023/01/26 10:39:14;;;;;;;21.10;2.42;;;8.50;98.00;;;;;;5048838;28;20823;-91
2023/01/26 10:41:40;;;;;;;18.55;2.90;;;8.70;96.90;;;;;;5039573;28;20437;-92
2023/01/26 10:44:08;;;;;;;19.73;2.78;;;9.00;96.50;;;;;;5029483;28;20514;-91
2023/01/26 10:46:39;;;;;;;16.58;1.80;;;9.20;95.30;;;;;;5046738;28;20782;-92
2023/01/26 10:49:08;;;;;;;17.45;2.08;;;9.10;94.50;;;;;;5029005;28;20428;-90
2023/01/26 10:51:37;;;;;;;20.40;1.98;;;9.10;94.50;;;;;;5059485;28;20475;-91
2023/01/26 10:54:19;;;;;;;20.33;2.03;;;9.40;95.50;;;;;;5055637;28;20422;-90
2023/01/26 10:57:25;;;;;;;18.05;1.83;;;9.10;95.10;;;;;;5049108;28;20443;-92
2023/01/26 10:59:59;;;;;;;18.35;2.03;;;9.10;94.80;;;;;;5043587;28;20433;-91
2023/01/26 11:02:28;;;;;;;15.93;2.00;;;9.00;95.10;;;;;;5065711;28;20408;-90
2023/01/26 11:05:05;;;;;;;15.65;1.70;;;8.80;95.20;;;;;;5051217;28;20416;-90
2023/01/26 11:07:39;;;;;;;13.13;1.58;;;8.60;95.60;;;;;;5055943;28;21005;-91
2023/01/26 11:10:35;;;;;;;11.10;1.07;;;8.50;95.20;;;;;;5064821;28;20407;-90
2023/01/26 11:13:18;;;;;;;11.63;0.87;;;8.20;95.50;;;;;;5047516;28;20813;-90
2023/01/26 11:15:51;;;;;;;12.93;1.27;;;8.20;96.00;;;;;;5060034;28;20402;-92
2023/01/26 11:18:52;;;;;;;14.90;1.35;;;8.30;95.10;;;;;;5052720;28;20438;-92
2023/01/26 11:21:38;;;;;;;12.95;1.33;;;8.20;94.60;;;;;;5070235;28;20411;-92
2023/01/26 11:24:31;;;;;;;13.48;1.60;;;8.20;95.10;;;;;;5052589;28;20418;-93
2023/01/26 11:27:16;;;;;;;15.95;1.70;;;8.10;94.90;;;;;;5069059;28;20431;-94
2023/01/26 11:30:05;;;;;;;12.30;1.58;;;8.00;95.30;;;;;;5053265;28;20414;-91
2023/01/26 11:32:54;;;;;;;13.63;1.60;;;8.30;96.40;;;;;;5068774;28;20412;-91
2023/01/26 11:35:32;;;;;;;14.35;1.90;;;8.60;95.90;;;;;;5052395;28;20443;-92
2023/01/26 11:38:08;;;;;;;20.63;2.33;;;8.90;95.60;;;;;;5069580;28;20462;-93
2023/01/26 11:41:22;;;;;;;16.85;1.85;;;9.20;94.80;;;;;;5052172;28;20420;-92
2023/01/26 11:44:17;;;;;;;15.20;2.10;;;9.40;94.80;;;;;;5043537;28;21045;-94
2023/01/26 11:46:53;;;;;;;14.32;1.50;;;9.40;94.30;;;;;;5052174;28;20435;-91
2023/01/26 11:49:43;;;;;;;18.98;1.77;;;9.20;93.90;;;;;;5050161;28;20422;-91
2023/01/26 11:52:31;;;;;;;15.00;1.50;;;9.30;94.10;;;;;;5066298;28;20948;-92
2023/01/26 11:55:03;;;;;;;15.48;1.52;;;9.00;94.30;;;;;;5052338;28;20452;-92
2023/01/26 11:57:47;;;;;;;14.85;1.48;;;9.20;94.50;;;;;;5052177;28;20496;-92
2023/01/26 12:00:24;;;;;;;12.40;1.23;;;9.00;94.50;;;;;;5069266;28;20448;-93
2023/01/26 12:03:03;;;;;;;13.30;1.50;;;9.10;94.20;;;;;;5051644;28;20407;-92
2023/01/26 12:05:40;;;;;;;11.55;1.05;;;8.90;94.20;;;;;;5051877;28;20503;-92
2023/01/26 12:08:19;;;;;;;11.82;1.30;;;8.90;93.70;;;;;;5052580;28;20411;-91
2023/01/26 12:10:49;;;;;;;10.57;0.93;;;8.90;93.60;;;;;;5068144;28;20883;-93
2023/01/26 12:13:34;;;;;;;11.85;1.23;;;9.20;93.90;;;;;;5052321;28;20435;-92
2023/01/26 12:16:15;;;;;;;11.55;0.80;;;9.10;94.00;;;;;;5051714;28;20499;-92
2023/01/26 12:18:50;;;;;;;13.25;1.00;;;9.00;93.10;;;;;;5068354;28;20407;-92
2023/01/26 12:21:17;;;;;;;11.73;1.00;;;9.10;93.60;;;;;;5051715;28;20431;-89
2023/01/26 12:23:57;;;;;;;10.40;0.85;;;9.10;93.10;;;;;;5067589;28;20450;-90
2023/01/26 12:26:26;;;;;;;10.90;1.20;;;9.00;92.90;;;;;;5050994;28;20459;-89
2023/01/26 12:29:41;;;;;;;10.63;1.10;;;8.90;92.80;;;;;;5066525;28;20407;-90
2023/01/26 12:32:12;;;;;;;12.07;1.25;;;8.90;93.00;;;;;;5080882;28;20415;-90
2023/01/26 12:34:38;;;;;;;11.02;1.05;;;8.90;93.40;;;;;;5051398;28;20865;-89
2023/01/26 12:37:43;;;;;;;15.40;1.90;;;8.80;93.80;;;;;;5050042;28;20443;-89
2023/01/26 12:40:43;;;;;;;16.77;1.50;;;8.80;94.10;;;;;;5067445;28;20460;-92
2023/01/26 12:43:17;;;;;;;11.85;1.27;;;8.70;94.20;;;;;;5068082;28;20423;-90
2023/01/26 12:45:47;;;;;;;14.25;1.30;;;8.70;94.70;;;;;;5050442;28;20942;-90
2023/01/26 12:48:22;;;;;;;11.30;1.20;;;8.80;94.70;;;;;;5050792;28;20411;-91
2023/01/26 12:50:57;;;;;;;11.38;1.17;;;8.80;94.40;;;;;;5050226;28;20419;-91
2023/01/26 12:53:34;;;;;;;12.77;1.15;;;8.80;93.90;;;;;;5042800;28;20440;-90
2023/01/26 12:56:02;;;;;;;11.27;1.17;;;8.80;94.00;;;;;;5050186;28;20407;-90
2023/01/26 12:58:33;;;;;;;12.05;1.27;;;8.70;93.80;;;;;;5066801;28;20416;-91
2023/01/26 13:01:10;;;;;;;10.00;0.70;;;8.60;93.60;;;;;;5049308;28;20468;-90
2023/01/26 13:03:57;;;;;;;10.80;1.10;;;8.60;93.50;;;;;;5049285;28;20412;-90
2023/01/26 13:06:27;;;;;;;10.68;1.08;;;8.80;93.90;;;;;;5048901;28;20420;-91
2023/01/26 13:08:56;;;;;;;12.53;1.27;;;9.10;93.80;;;;;;5048869;28;20408;-89
2023/01/26 13:11:42;;;;;;;7.97;1.02;;;9.00;93.10;;;;;;5048857;28;20426;-90
2023/01/26 13:14:43;;;;;;;9.27;0.80;;;9.00;92.60;;;;;;5049415;28;20411;-90
2023/01/26 13:17:14;;;;;;;8.25;0.60;;;8.90;91.70;;;;;;5049490;28;20518;-90
2023/01/26 13:19:43;;;;;;;9.93;0.90;;;8.70;91.10;;;;;;5049928;28;20415;-91
2023/01/26 13:22:18;;;;;;;7.40;0.80;;;8.70;91.80;;;;;;5051303;28;20418;-91
2023/01/26 13:24:47;;;;;;;10.80;1.00;;;8.50;91.40;;;;;;5049569;28;20924;-89
2023/01/26 13:27:36;;;;;;;8.20;0.65;;;8.50;91.70;;;;;;5050585;28;20435;-91
2023/01/26 13:30:03;;;;;;;10.05;0.73;;;8.40;92.10;;;;;;5049973;28;20408;-91
2023/01/26 13:32:35;;;;;;;12.15;1.25;;;8.40;92.50;;;;;;5050475;28;20460;-91
2023/01/26 13:35:00;;;;;;;12.07;1.30;;;8.30;92.70;;;;;;5067119;28;20451;-90
2023/01/26 13:37:47;;;;;;;12.07;1.08;;;8.30;93.20;;;;;;5049782;28;20891;-91
2023/01/26 13:40:25;;;;;;;14.55;0.90;;;8.30;93.70;;;;;;5050022;28;20453;-91
2023/01/26 13:42:57;;;;;;;11.95;1.30;;;8.30;93.60;;;;;;5050534;28;20434;-91